METAR Data
IDs: Format: Raw Decoded Include TAF

Data at: 1758 UTC 16 Oct 2021

KLBB 161753Z 21005KT 10SM CLR 18/M02 A3044 RMK AO2 SLP287 T01781017 10183 20017 58004
KLBB 161653Z 22006KT 10SM CLR 16/M01 A3046 RMK AO2 SLP297 T01611011
KLBB 161553Z 20008KT 10SM FEW030 14/M01 A3046 RMK AO2 SLP298 T01441006
KLBB 161453Z 20005KT 10SM CLR 12/M01 A3045 RMK AO2 SLP298 T01221006 53012
KLBB 161353Z 05003KT 10SM CLR 07/01 A3043 RMK AO2 SLP296 T00670006
KLBB 161253Z 33003KT 10SM CLR 02/M02 A3043 RMK AO2 SLP297 T00171022
KLBB 161153Z 31005KT 10SM CLR 03/M02 A3041 RMK AO2 SLP286 T00281017 10078 20022 53008
KLBB 161053Z 27005KT 10SM CLR 03/M02 A3040 RMK AO2 SLP279 T00331017
KLBB 160953Z 00000KT 10SM CLR 03/M02 A3039 RMK AO2 SLP274 T00331017
KLBB 160853Z 00000KT 10SM CLR 06/M01 A3039 RMK AO2 SLP271 T00561011 52001
KLBB 160753Z 00000KT 10SM CLR 04/M02 A3039 RMK AO2 SLP272 T00441017
KLBB 160653Z COR 00000KT 10SM CLR 07/M01 A3038 RMK AO2 SLP269 T00671011
KLBB 160553Z 10003KT 10SM CLR 07/M01 A3038 RMK AO2 SLP270 T00721011 10161 20056 401940056 52013
KLBB 160453Z 06007KT 10SM CLR 06/M01 A3037 RMK AO2 SLP271 T00561011
KLBB 160353Z 06007KT 10SM CLR 07/M01 A3035 RMK AO2 SLP265 T00671006
KLBB 160253Z 05006KT 10SM CLR 07/M01 A3034 RMK AO2 SLP263 T00721006 51021
KLBB 160153Z 04008KT 10SM CLR 09/M01 A3032 RMK AO2 SLP257 T00891006
KLBB 160053Z 03007KT 10SM CLR 12/M01 A3030 RMK AO2 SLP246 T01171006
KLBB 152353Z 02008KT 10SM CLR 16/M01 A3027 RMK AO2 SLP232 T01611011 10194 20161 51009
KLBB 152253Z 03008KT 10SM CLR 18/M02 A3026 RMK AO2 SLP225 T01831017
KLBB 152153Z 03012G20KT 10SM CLR 18/M02 A3026 RMK AO2 SLP223 T01831017
KLBB 152053Z 34012KT 10SM CLR 19/M03 A3024 RMK AO2 PK WND 35026/2003 SLP218 T01891028 55006
KLBB 151953Z 36011G22KT 10SM FEW065 19/M02 A3024 RMK AO2 PK WND 01026/1938 SLP216 T01891017
KLBB 151853Z 35013G23KT 10SM FEW060 18/M01 A3025 RMK AO2 PK WND 36026/1823 SLP219 T01781006
KLBB 151753Z 01010G23KT 10SM CLR 17/00 A3026 RMK AO2 PK WND 03026/1702 SLP225 T01670000 10167 20061 50011
KLBB 151653Z 02018G23KT 10SM CLR 14/01 A3027 RMK AO2 PK WND 04027/1615 SLP227 T01440006
KLBB 151553Z 01018G26KT 10SM CLR 12/01 A3025 RMK AO2 PK WND 02026/1551 SLP222 T01220006
KLBB 151453Z 36018G25KT 10SM CLR 10/01 A3023 RMK AO2 SLP212 T01000006 53036
KLBB 151353Z 36016G26KT 10SM CLR 08/02 A3018 RMK AO2 PK WND 02026/1353 SLP199 T00780017
KLBB 151253Z 01011KT 10SM CLR 06/02 A3015 RMK AO2 SLP185 T00610017
KLBB 151153Z 36014G21KT 10SM CLR 07/02 A3011 RMK AO2 SLP166 T00670022 10111 20067 53034
KLBB 151053Z 36011KT 10SM CLR 07/03 A3007 RMK AO2 SLP148 T00720028
KLBB 150953Z 35011KT 10SM CLR 08/02 A3003 RMK AO2 SLP134 T00780022
KLBB 150853Z 35009KT 10SM CLR 08/02 A3000 RMK AO2 SLP124 T00780017 53013
KLBB 150753Z 35006KT 10SM CLR 08/M01 A2997 RMK AO2 SLP115 T00781006
KLBB 150653Z 29005KT 10SM CLR 10/M01 A2996 RMK AO2 SLP107 T01001011